Time;durP1;ratioP1;P1;durP2;ratioP2;P2;SDS_P1;SDS_P2;PMS_P1;PMS_P2;Temp;Humidity;BMP_temperature;BMP_pressure;BME280_temperature;BME280_humidity;BME280_pressure;Samples;Min_cycle;Max_cycle;Signal;HPM_P1;HPM_P2
2021/12/19 00:02:16;;;;;;;;;;;;;;;;;;2220339;58;1253;-71
2021/12/19 00:08:28;;;;;;;;;;;;;;;;;;2222900;66;1158;-71
2021/12/19 00:10:40;;;;;;;;;;;;;;;;;;2221193;66;1035;-71
2021/12/19 00:13:13;;;;;;;;;;;;;;;;;;2222121;58;1285;-71
2021/12/19 00:15:46;;;;;;;;;;;;;;;;;;2223266;58;1251;-71
2021/12/19 00:18:22;;;;;;;;;;;;;;;;;;2222697;66;1150;-71
2021/12/19 00:20:56;;;;;;;;;;;;;;;;;;2222289;66;1931;-71
2021/12/19 00:23:29;;;;;;;;;;;;;;;;;;2221434;58;1316;-71
2021/12/19 00:26:02;;;;;;;;;;;;;;;;;;2222978;58;1175;-71
2021/12/19 00:28:36;;;;;;;;;;;;;;;;;;2222534;66;1103;-71
2021/12/19 00:31:09;;;;;;;;;;;;;;;;;;2223539;58;1510;-71
2021/12/19 00:33:45;;;;;;;;;;;;;;;;;;2222253;66;1320;-71
2021/12/19 00:36:18;;;;;;;;;;;;;;;;;;2221685;58;1945;-71
2021/12/19 00:38:52;;;;;;;;;;;;;;;;;;2223094;59;1312;-71
2021/12/19 00:41:25;;;;;;;;;;;;;;;;;;2222139;66;1975;-71
2021/12/19 00:44:07;;;;;;;;;;;;;;;;;;2222105;58;1691;-71
2021/12/19 00:46:48;;;;;;;;;;;;;;;;;;2221325;66;2811;-71
2021/12/19 00:49:25;;;;;;;;;;;;;;;;;;2220378;66;1240;-71
2021/12/19 00:51:58;;;;;;;;;;;;;;;;;;2221917;66;1234;-71
2021/12/19 00:54:32;;;;;;;;;;;;;;;;;;2222102;66;1128;-71
2021/12/19 00:57:05;;;;;;;;;;;;;;;;;;2222376;58;1391;-71
2021/12/19 00:59:38;;;;;;;;;;;;;;;;;;2222498;66;1920;-71
2021/12/19 01:02:11;;;;;;;;;;;;;;;;;;2222503;58;1236;-71
2021/12/19 01:04:47;;;;;;;;;;;;;;;;;;2222731;58;1152;-71
2021/12/19 01:07:20;;;;;;;;;;;;;;;;;;2221405;58;1440;-71
2021/12/19 01:09:54;;;;;;;;;;;;;;;;;;2222396;66;1241;-71
2021/12/19 01:12:27;;;;;;;;;;;;;;;;;;2222025;58;1326;-71
2021/12/19 01:15:00;;;;;;;;;;;;;;;;;;2222885;66;1255;-71
2021/12/19 01:17:34;;;;;;;;;;;;;;;;;;2221837;66;1264;-71
2021/12/19 01:20:13;;;;;;;;;;;;;;;;;;2222340;58;1927;-71
2021/12/19 01:22:47;;;;;;;;;;;;;;;;;;2220841;58;1355;-71
2021/12/19 01:25:20;;;;;;;;;;;;;;;;;;2222554;66;1073;-71
2021/12/19 01:27:54;;;;;;;;;;;;;;;;;;2222061;66;1145;-71
2021/12/19 01:30:27;;;;;;;;;;;;;;;;;;2221553;66;1819;-71
2021/12/19 01:33:00;;;;;;;;;;;;;;;;;;2219466;66;1240;-71
2021/12/19 01:35:36;;;;;;;;;;;;;;;;;;2222101;58;1056;-71
2021/12/19 01:38:09;;;;;;;;;;;;;;;;;;2221900;59;1177;-71
2021/12/19 01:40:42;;;;;;;;;;;;;;;;;;2221621;66;1925;-71
2021/12/19 01:43:16;;;;;;;;;;;;;;;;;;2221497;58;1284;-71
2021/12/19 01:45:49;;;;;;;;;;;;;;;;;;2221795;58;1081;-71
2021/12/19 01:48:23;;;;;;;;;;;;;;;;;;2221708;59;1178;-71
2021/12/19 01:50:58;;;;;;;;;;;;;;;;;;2222486;58;1090;-71
2021/12/19 01:53:32;;;;;;;;;;;;;;;;;;2222167;66;1216;-71
2021/12/19 01:56:07;;;;;;;;;;;;;;;;;;2222164;58;1454;-71
2021/12/19 01:58:42;;;;;;;;;;;;;;;;;;2221675;58;1427;-71
2021/12/19 02:01:15;;;;;;;;;;;;;;;;;;2221660;66;1935;-71
2021/12/19 02:03:48;;;;;;;;;;;;;;;;;;2221267;58;1140;-71
2021/12/19 02:06:24;;;;;;;;;;;;;;;;;;2218803;58;1273;-71
2021/12/19 02:09:03;;;;;;;;;;;;;;;;;;2221099;66;1043;-71
2021/12/19 02:11:37;;;;;;;;;;;;;;;;;;2221997;58;1289;-71
2021/12/19 02:14:11;;;;;;;;;;;;;;;;;;2206829;58;3642;-70
2021/12/19 02:16:44;;;;;;;;;;;;;;;;;;2201185;59;1302;-70
2021/12/19 02:19:17;;;;;;;;;;;;;;;;;;2201567;59;1130;-70
2021/12/19 02:21:54;;;;;;;;;;;;;;;;;;2201877;59;1930;-70
2021/12/19 02:24:27;;;;;;;;;;;;;;;;;;2202616;59;1280;-70
2021/12/19 02:27:00;;;;;;;;;;;;;;;;;;2201521;67;1230;-70
2021/12/19 02:29:33;;;;;;;;;;;;;;;;;;2203425;59;1405;-70
2021/12/19 02:32:07;;;;;;;;;;;;;;;;;;2202015;67;1256;-71
2021/12/19 02:34:43;;;;;;;;;;;;;;;;;;2202914;67;1132;-70
2021/12/19 02:37:47;;;;;;;;;;;;;;;;;;2202663;59;1192;-70
2021/12/19 02:48:49;;;;;;;;;;;;;;;;;;2203287;67;1137;-70
2021/12/19 02:51:22;;;;;;;;;;;;;;;;;;2203552;59;1237;-70
2021/12/19 02:54:00;;;;;;;;;;;;;;;;;;2203715;67;1225;-70
2021/12/19 02:56:33;;;;;;;;;;;;;;;;;;2203651;67;1999;-70
2021/12/19 02:59:07;;;;;;;;;;;;;;;;;;2204436;59;1767;-70
2021/12/19 03:01:41;;;;;;;;;;;;;;;;;;2203337;59;1930;-70
2021/12/19 03:04:14;;;;;;;;;;;;;;;;;;2203913;67;1246;-70
2021/12/19 03:06:48;;;;;;;;;;;;;;;;;;2204013;59;1343;-70
2021/12/19 03:09:42;;;;;;;;;;;;;;;;;;2203549;67;1246;-70
2021/12/19 03:12:27;;;;;;;;;;;;;;;;;;2203426;59;1255;-70
2021/12/19 03:18:00;;;;;;;;;;;;;;;;;;2203313;67;1130;-70
2021/12/19 03:20:35;;;;;;;;;;;;;;;;;;2202831;59;1918;-70
2021/12/19 03:23:09;;;;;;;;;;;;;;;;;;2203666;59;1287;-70
2021/12/19 03:25:45;;;;;;;;;;;;;;;;;;2203223;66;1096;-70
2021/12/19 03:28:18;;;;;;;;;;;;;;;;;;2202570;66;1187;-70
2021/12/19 03:30:51;;;;;;;;;;;;;;;;;;2203563;59;1384;-70
2021/12/19 03:33:25;;;;;;;;;;;;;;;;;;2203272;59;1261;-70
2021/12/19 03:35:58;;;;;;;;;;;;;;;;;;2203650;59;1104;-70
2021/12/19 03:38:33;;;;;;;;;;;;;;;;;;2202914;67;1237;-70
2021/12/19 03:41:16;;;;;;;;;;;;;;;;;;2203312;59;1940;-70
2021/12/19 03:43:49;;;;;;;;;;;;;;;;;;2203188;59;1175;-70
2021/12/19 03:46:22;;;;;;;;;;;;;;;;;;2203157;67;1316;-70
2021/12/19 03:48:55;;;;;;;;;;;;;;;;;;2204249;59;1171;-70
2021/12/19 03:51:29;;;;;;;;;;;;;;;;;;2204476;66;1177;-70
2021/12/19 03:54:02;;;;;;;;;;;;;;;;;;2202489;67;1285;-70
2021/12/19 03:56:38;;;;;;;;;;;;;;;;;;2203706;59;1638;-70
2021/12/19 03:59:11;;;;;;;;;;;;;;;;;;2203812;67;1101;-70
2021/12/19 04:01:49;;;;;;;;;;;;;;;;;;2203380;59;1967;-70
2021/12/19 04:04:22;;;;;;;;;;;;;;;;;;2203145;59;1242;-70
2021/12/19 04:06:55;;;;;;;;;;;;;;;;;;2203918;59;1308;-70
2021/12/19 04:09:29;;;;;;;;;;;;;;;;;;2199597;67;1679;-70
2021/12/19 04:12:05;;;;;;;;;;;;;;;;;;2203306;59;1334;-70
2021/12/19 04:14:38;;;;;;;;;;;;;;;;;;2203723;59;1097;-70
2021/12/19 04:17:11;;;;;;;;;;;;;;;;;;2200810;67;1182;-70
2021/12/19 04:19:44;;;;;;;;;;;;;;;;;;2203795;67;1201;-70
2021/12/19 04:22:18;;;;;;;;;;;;;;;;;;2203380;67;1927;-70
2021/12/19 04:24:51;;;;;;;;;;;;;;;;;;2203341;67;1009;-70
2021/12/19 04:27:27;;;;;;;;;;;;;;;;;;2205613;59;1195;-70
2021/12/19 04:30:00;;;;;;;;;;;;;;;;;;2202890;67;1735;-70
2021/12/19 04:32:38;;;;;;;;;;;;;;;;;;2198888;67;1266;-70
2021/12/19 04:35:12;;;;;;;;;;;;;;;;;;2202585;67;1179;-70
2021/12/19 04:38:24;;;;;;;;;;;;;;;;;;2203814;67;1131;-70
2021/12/19 04:41:07;;;;;;;;;;;;;;;;;;2203157;59;2054;-71
2021/12/19 04:52:44;;;;;;;;;;;;;;;;;;2204931;59;1171;-70
2021/12/19 04:58:46;;;;;;;;;;;;;;;;;;2201854;67;1475;-70
2021/12/19 05:04:21;;;;;;;;;;;;;;;;;;2204338;59;1875;-70
2021/12/19 05:15:17;;;;;;;;;;;;;;;;;;2202476;67;1219;-70
2021/12/19 05:17:55;;;;;;;;;;;;;;;;;;2201952;67;1150;-70
2021/12/19 05:20:29;;;;;;;;;;;;;;;;;;2201621;67;1269;-70
2021/12/19 05:23:09;;;;;;;;;;;;;;;;;;2201953;59;1929;-70
2021/12/19 05:25:42;;;;;;;;;;;;;;;;;;2203764;67;1254;-70
2021/12/19 05:28:15;;;;;;;;;;;;;;;;;;2202758;67;1211;-70
2021/12/19 05:30:48;;;;;;;;;;;;;;;;;;2202486;59;1582;-70
2021/12/19 05:33:24;;;;;;;;;;;;;;;;;;2201304;60;1237;-70
2021/12/19 05:47:09;;;;;;;;;;;;;;;;;;2203054;67;1154;-70
2021/12/19 05:49:45;;;;;;;;;;;;;;;;;;2202161;67;1091;-70
2021/12/19 05:52:18;;;;;;;;;;;;;;;;;;2201540;67;1239;-70
2021/12/19 05:54:51;;;;;;;;;;;;;;;;;;2201398;67;1129;-70
2021/12/19 05:57:24;;;;;;;;;;;;;;;;;;2201409;59;1534;-71
2021/12/19 05:59:58;;;;;;;;;;;;;;;;;;2201570;67;1113;-70
2021/12/19 06:02:32;;;;;;;;;;;;;;;;;;2201538;59;1945;-70
2021/12/19 06:05:08;;;;;;;;;;;;;;;;;;2200967;67;1182;-69
2021/12/19 06:07:42;;;;;;;;;;;;;;;;;;2200914;59;1450;-70
2021/12/19 06:10:15;;;;;;;;;;;;;;;;;;2201625;67;1128;-70
2021/12/19 06:12:48;;;;;;;;;;;;;;;;;;2201528;59;1246;-70
2021/12/19 06:15:22;;;;;;;;;;;;;;;;;;2202084;67;1154;-70
2021/12/19 06:17:55;;;;;;;;;;;;;;;;;;2200435;67;1079;-70
2021/12/19 06:20:31;;;;;;;;;;;;;;;;;;2201710;67;1306;-70
2021/12/19 06:23:07;;;;;;;;;;;;;;;;;;2202321;67;1929;-71
2021/12/19 06:25:45;;;;;;;;;;;;;;;;;;2202930;67;1120;-70
2021/12/19 06:28:19;;;;;;;;;;;;;;;;;;2203341;59;1323;-71
2021/12/19 06:30:52;;;;;;;;;;;;;;;;;;2201696;59;1448;-70
2021/12/19 06:33:25;;;;;;;;;;;;;;;;;;2202368;67;1290;-70
2021/12/19 06:36:01;;;;;;;;;;;;;;;;;;2200701;59;1092;-70
2021/12/19 06:38:35;;;;;;;;;;;;;;;;;;2203595;67;1081;-70
2021/12/19 06:41:08;;;;;;;;;;;;;;;;;;2201793;67;1177;-70
2021/12/19 06:43:41;;;;;;;;;;;;;;;;;;2202093;67;1943;-70
2021/12/19 06:46:14;;;;;;;;;;;;;;;;;;2202119;67;1167;-70
2021/12/19 06:48:48;;;;;;;;;;;;;;;;;;2204334;67;1243;-70
2021/12/19 06:51:24;;;;;;;;;;;;;;;;;;2203080;67;1254;-70
2021/12/19 06:53:57;;;;;;;;;;;;;;;;;;2201711;59;1243;-70
2021/12/19 06:56:31;;;;;;;;;;;;;;;;;;2202882;59;1661;-70
2021/12/19 06:59:04;;;;;;;;;;;;;;;;;;2202516;59;1721;-70
2021/12/19 07:01:38;;;;;;;;;;;;;;;;;;2202731;59;1976;-70
2021/12/19 07:04:11;;;;;;;;;;;;;;;;;;2201978;59;1182;-70
2021/12/19 07:06:47;;;;;;;;;;;;;;;;;;2202839;59;1434;-70
2021/12/19 07:09:20;;;;;;;;;;;;;;;;;;2202400;67;1081;-70
2021/12/19 07:11:54;;;;;;;;;;;;;;;;;;2201911;59;1310;-70
2021/12/19 07:14:27;;;;;;;;;;;;;;;;;;2201966;67;1311;-70
2021/12/19 07:17:00;;;;;;;;;;;;;;;;;;2201962;67;1146;-70
2021/12/19 07:19:33;;;;;;;;;;;;;;;;;;2201759;67;1143;-70
2021/12/19 07:22:09;;;;;;;;;;;;;;;;;;2201878;67;1939;-70
2021/12/19 07:24:42;;;;;;;;;;;;;;;;;;2203346;67;3055;-70
2021/12/19 07:27:16;;;;;;;;;;;;;;;;;;2202542;67;1082;-70
2021/12/19 07:29:50;;;;;;;;;;;;;;;;;;2202550;59;1540;-70
2021/12/19 07:32:23;;;;;;;;;;;;;;;;;;2201688;67;1245;-70
2021/12/19 07:34:56;;;;;;;;;;;;;;;;;;2202885;67;1304;-70
2021/12/19 07:37:32;;;;;;;;;;;;;;;;;;2202915;67;1209;-70
2021/12/19 07:40:14;;;;;;;;;;;;;;;;;;2202971;67;1310;-70
2021/12/19 07:42:47;;;;;;;;;;;;;;;;;;2202703;67;1945;-70
2021/12/19 07:45:20;;;;;;;;;;;;;;;;;;2200437;59;1919;-70
2021/12/19 07:47:54;;;;;;;;;;;;;;;;;;2202810;59;1224;-70
2021/12/19 07:50:28;;;;;;;;;;;;;;;;;;2202709;59;1092;-70
2021/12/19 07:53:04;;;;;;;;;;;;;;;;;;2202743;67;1302;-70
2021/12/19 07:55:37;;;;;;;;;;;;;;;;;;2203531;67;1101;-70
2021/12/19 07:58:10;;;;;;;;;;;;;;;;;;2202260;59;1274;-70
2021/12/19 08:00:44;;;;;;;;;;;;;;;;;;2202663;59;1219;-70
2021/12/19 08:03:17;;;;;;;;;;;;;;;;;;2201796;59;1980;-70
2021/12/19 08:05:51;;;;;;;;;;;;;;;;;;2204152;59;1446;-70
2021/12/19 08:08:32;;;;;;;;;;;;;;;;;;2202656;67;1171;-70
2021/12/19 08:13:55;;;;;;;;;;;;;;;;;;2214416;54;3526;-73
2021/12/19 08:16:28;;;;;;;;;;;;;;;;;;2222775;58;1281;-73
2021/12/19 08:19:01;;;;;;;;;;;;;;;;;;2224775;58;1182;-73
2021/12/19 08:21:35;;;;;;;;;;;;;;;;;;2223955;58;1396;-73
2021/12/19 08:24:13;;;;;;;;;;;;;;;;;;2221991;58;1935;-73
2021/12/19 08:26:47;;;;;;;;;;;;;;;;;;2220189;66;1214;-73
2021/12/19 08:29:20;;;;;;;;;;;;;;;;;;2220839;58;1565;-71
2021/12/19 08:31:53;;;;;;;;;;;;;;;;;;2219734;58;1665;-71
2021/12/19 08:34:26;;;;;;;;;;;;;;;;;;2219552;59;1181;-71
2021/12/19 08:37:00;;;;;;;;;;;;;;;;;;2220162;66;1295;-71
2021/12/19 08:39:38;;;;;;;;;;;;;;;;;;2219676;66;1179;-71
2021/12/19 08:42:12;;;;;;;;;;;;;;;;;;2219995;59;1968;-71
2021/12/19 08:44:45;;;;;;;;;;;;;;;;;;2218659;58;1577;-71
2021/12/19 08:47:18;;;;;;;;;;;;;;;;;;2219604;58;1805;-71
2021/12/19 08:49:52;;;;;;;;;;;;;;;;;;2219802;58;1617;-71
2021/12/19 08:52:25;;;;;;;;;;;;;;;;;;2219083;58;1784;-71
2021/12/19 08:55:01;;;;;;;;;;;;;;;;;;2219866;66;1072;-71
2021/12/19 08:57:34;;;;;;;;;;;;;;;;;;2220053;58;1367;-73
2021/12/19 09:00:10;;;;;;;;;;;;;;;;;;2220276;66;1325;-73
2021/12/19 09:02:46;;;;;;;;;;;;;;;;;;2219624;59;1954;-73
2021/12/19 09:05:19;;;;;;;;;;;;;;;;;;2220134;66;1298;-73
2021/12/19 09:07:52;;;;;;;;;;;;;;;;;;2219581;58;1417;-70
2021/12/19 09:10:29;;;;;;;;;;;;;;;;;;2216099;59;1739;-71
2021/12/19 09:13:02;;;;;;;;;;;;;;;;;;2219975;58;1299;-71
2021/12/19 09:15:35;;;;;;;;;;;;;;;;;;2219317;58;1182;-71
2021/12/19 09:18:08;;;;;;;;;;;;;;;;;;2220169;59;1309;-71
2021/12/19 09:20:41;;;;;;;;;;;;;;;;;;2219067;59;1370;-71
2021/12/19 09:23:14;;;;;;;;;;;;;;;;;;2220121;58;1988;-71
2021/12/19 09:25:50;;;;;;;;;;;;;;;;;;2219988;59;1433;-71
2021/12/19 09:28:24;;;;;;;;;;;;;;;;;;2216961;59;1393;-71
2021/12/19 09:30:57;;;;;;;;;;;;;;;;;;2219957;59;1514;-71
2021/12/19 09:33:30;;;;;;;;;;;;;;;;;;2218838;58;1811;-71
2021/12/19 09:36:03;;;;;;;;;;;;;;;;;;2219611;58;1192;-71
2021/12/19 09:38:36;;;;;;;;;;;;;;;;;;2216960;58;1371;-71
2021/12/19 09:41:17;;;;;;;;;;;;;;;;;;2220172;59;1591;-71
2021/12/19 09:43:51;;;;;;;;;;;;;;;;;;2218370;58;1936;-71
2021/12/19 09:46:28;;;;;;;;;;;;;;;;;;2220182;66;1237;-71
2021/12/19 09:49:01;;;;;;;;;;;;;;;;;;2218852;59;1252;-71
2021/12/19 09:51:34;;;;;;;;;;;;;;;;;;2219802;59;1375;-71
2021/12/19 09:54:08;;;;;;;;;;;;;;;;;;2219777;59;1510;-71
2021/12/19 09:56:44;;;;;;;;;;;;;;;;;;2220012;58;1393;-71
2021/12/19 09:59:18;;;;;;;;;;;;;;;;;;2220017;66;1255;-71
2021/12/19 10:01:52;;;;;;;;;;;;;;;;;;2218579;58;1733;-71
2021/12/19 10:04:36;;;;;;;;;;;;;;;;;;2217408;58;1990;-71
2021/12/19 10:07:14;;;;;;;;;;;;;;;;;;2217657;58;2335;-71
2021/12/19 10:10:00;;;;;;;;;;;;;;;;;;2219214;58;1447;-71
2021/12/19 10:12:48;;;;;;;;;;;;;;;;;;2215644;59;1413;-71
2021/12/19 10:15:28;;;;;;;;;;;;;;;;;;2218400;58;2567;-71
2021/12/19 10:18:03;;;;;;;;;;;;;;;;;;2218563;59;2386;-71
2021/12/19 10:20:44;;;;;;;;;;;;;;;;;;2218913;58;1298;-72
2021/12/19 10:23:20;;;;;;;;;;;;;;;;;;2218449;58;2418;-71
2021/12/19 10:25:57;;;;;;;;;;;;;;;;;;2218044;58;1735;-71
2021/12/19 10:28:33;;;;;;;;;;;;;;;;;;2215368;59;1277;-71
2021/12/19 10:31:07;;;;;;;;;;;;;;;;;;2217505;58;1572;-71
2021/12/19 10:33:40;;;;;;;;;;;;;;;;;;2217886;58;1734;-71
2021/12/19 10:36:13;;;;;;;;;;;;;;;;;;2219152;58;1259;-73
2021/12/19 10:38:47;;;;;;;;;;;;;;;;;;2218711;58;1619;-72
2021/12/19 10:41:22;;;;;;;;;;;;;;;;;;2218784;59;1142;-71
2021/12/19 10:44:02;;;;;;;;;;;;;;;;;;2218438;59;1932;-71
2021/12/19 10:46:37;;;;;;;;;;;;;;;;;;2217912;58;1593;-71
2021/12/19 10:49:23;;;;;;;;;;;;;;;;;;2218778;58;1188;-71
2021/12/19 10:52:01;;;;;;;;;;;;;;;;;;2219079;58;1462;-71
2021/12/19 10:54:35;;;;;;;;;;;;;;;;;;2218410;58;1424;-71
2021/12/19 10:57:08;;;;;;;;;;;;;;;;;;2219024;58;1438;-71
2021/12/19 10:59:47;;;;;;;;;;;;;;;;;;2218955;59;1225;-72
2021/12/19 11:02:35;;;;;;;;;;;;;;;;;;2219358;59;1330;-73
2021/12/19 11:05:09;;;;;;;;;;;;;;;;;;2219219;66;1982;-71
2021/12/19 11:08:00;;;;;;;;;;;;;;;;;;2218607;58;1622;-71
2021/12/19 11:10:35;;;;;;;;;;;;;;;;;;2215372;59;1492;-71
2021/12/19 11:13:11;;;;;;;;;;;;;;;;;;2218647;58;1375;-71
2021/12/19 11:15:49;;;;;;;;;;;;;;;;;;2219244;58;2465;-71
2021/12/19 11:18:22;;;;;;;;;;;;;;;;;;2218778;58;2414;-71
2021/12/19 11:20:55;;;;;;;;;;;;;;;;;;2222111;59;1143;-71
2021/12/19 11:23:28;;;;;;;;;;;;;;;;;;2220384;58;1925;-72
2021/12/19 11:26:01;;;;;;;;;;;;;;;;;;2222124;59;1176;-71
2021/12/19 11:28:35;;;;;;;;;;;;;;;;;;2217790;58;1483;-71
2021/12/19 11:31:13;;;;;;;;;;;;;;;;;;2220074;58;1316;-71
2021/12/19 11:33:56;;;;;;;;;;;;;;;;;;2219733;58;1914;-71
2021/12/19 11:36:29;;;;;;;;;;;;;;;;;;2220760;66;1068;-71
2021/12/19 11:39:03;;;;;;;;;;;;;;;;;;2221453;58;1272;-71
2021/12/19 11:41:39;;;;;;;;;;;;;;;;;;2219400;59;1217;-71
2021/12/19 11:44:32;;;;;;;;;;;;;;;;;;2220285;66;1920;-71
2021/12/19 11:47:14;;;;;;;;;;;;;;;;;;2219883;59;1333;-71
2021/12/19 11:50:08;;;;;;;;;;;;;;;;;;2219600;59;1183;-71
2021/12/19 11:52:41;;;;;;;;;;;;;;;;;;2219725;58;1246;-72
2021/12/19 11:55:25;;;;;;;;;;;;;;;;;;2219370;58;1139;-71
2021/12/19 11:58:18;;;;;;;;;;;;;;;;;;2219215;58;2434;-73
2021/12/19 12:00:54;;;;;;;;;;;;;;;;;;2219160;59;1426;-71
2021/12/19 12:03:31;;;;;;;;;;;;;;;;;;2220373;58;1928;-71
2021/12/19 12:06:25;;;;;;;;;;;;;;;;;;2219756;58;1708;-71
2021/12/19 12:09:23;;;;;;;;;;;;;;;;;;2219242;58;1449;-71
2021/12/19 12:12:13;;;;;;;;;;;;;;;;;;2219748;58;1237;-70
2021/12/19 12:14:55;;;;;;;;;;;;;;;;;;2219664;58;1258;-71
2021/12/19 12:17:35;;;;;;;;;;;;;;;;;;2218694;58;2522;-71
2021/12/19 12:20:16;;;;;;;;;;;;;;;;;;2217637;58;2609;-70
2021/12/19 12:22:54;;;;;;;;;;;;;;;;;;2219743;58;1299;-71
2021/12/19 12:25:33;;;;;;;;;;;;;;;;;;2219209;59;1929;-71
2021/12/19 12:28:09;;;;;;;;;;;;;;;;;;2220672;59;1439;-70
2021/12/19 12:30:45;;;;;;;;;;;;;;;;;;2220946;58;1427;-70
2021/12/19 12:33:20;;;;;;;;;;;;;;;;;;2219478;58;2123;-70
2021/12/19 12:35:57;;;;;;;;;;;;;;;;;;2219233;58;1183;-70
2021/12/19 12:38:32;;;;;;;;;;;;;;;;;;2219547;58;1644;-71
2021/12/19 12:41:16;;;;;;;;;;;;;;;;;;2219712;58;1999;-73
2021/12/19 12:43:49;;;;;;;;;;;;;;;;;;2220088;59;1933;-71
2021/12/19 12:46:23;;;;;;;;;;;;;;;;;;2218885;58;1428;-71
2021/12/19 12:48:57;;;;;;;;;;;;;;;;;;2219073;59;1214;-71
2021/12/19 12:51:35;;;;;;;;;;;;;;;;;;2219573;59;1664;-71
2021/12/19 12:54:09;;;;;;;;;;;;;;;;;;2219753;58;1860;-70
2021/12/19 12:56:46;;;;;;;;;;;;;;;;;;2219497;58;1472;-71
2021/12/19 12:59:20;;;;;;;;;;;;;;;;;;2219267;58;1777;-71
2021/12/19 13:01:55;;;;;;;;;;;;;;;;;;2219978;58;1187;-71
2021/12/19 13:04:29;;;;;;;;;;;;;;;;;;2219678;58;1990;-71
2021/12/19 13:07:06;;;;;;;;;;;;;;;;;;2220065;58;1211;-73
2021/12/19 13:09:40;;;;;;;;;;;;;;;;;;2219383;59;1352;-70
2021/12/19 13:12:15;;;;;;;;;;;;;;;;;;2219931;58;1330;-71
2021/12/19 13:14:49;;;;;;;;;;;;;;;;;;2219147;58;1663;-71
2021/12/19 13:17:23;;;;;;;;;;;;;;;;;;2219959;58;1230;-71
2021/12/19 13:19:58;;;;;;;;;;;;;;;;;;2219359;58;1463;-73
2021/12/19 13:22:38;;;;;;;;;;;;;;;;;;2219886;58;1255;-71
2021/12/19 13:25:12;;;;;;;;;;;;;;;;;;2219566;58;1980;-71
2021/12/19 13:27:47;;;;;;;;;;;;;;;;;;2219385;58;1250;-71
2021/12/19 13:30:23;;;;;;;;;;;;;;;;;;2221107;58;1509;-71
2021/12/19 13:32:57;;;;;;;;;;;;;;;;;;2221656;58;1281;-73
2021/12/19 13:35:31;;;;;;;;;;;;;;;;;;2219328;59;1181;-73
2021/12/19 13:38:09;;;;;;;;;;;;;;;;;;2220430;58;1324;-72
2021/12/19 13:40:43;;;;;;;;;;;;;;;;;;2220763;58;1425;-71
2021/12/19 13:43:17;;;;;;;;;;;;;;;;;;2220104;58;1290;-71
2021/12/19 13:45:52;;;;;;;;;;;;;;;;;;2214398;58;2000;-71
2021/12/19 13:48:30;;;;;;;;;;;;;;;;;;2217621;58;1159;-71
2021/12/19 13:51:07;;;;;;;;;;;;;;;;;;2220400;59;1048;-71
2021/12/19 13:53:44;;;;;;;;;;;;;;;;;;2220025;66;1250;-70
2021/12/19 13:56:18;;;;;;;;;;;;;;;;;;2217736;59;2536;-72
2021/12/19 13:58:53;;;;;;;;;;;;;;;;;;2218691;58;2189;-73
2021/12/19 14:01:28;;;;;;;;;;;;;;;;;;2219685;58;1187;-70
2021/12/19 14:04:02;;;;;;;;;;;;;;;;;;2219877;66;1983;-70
2021/12/19 14:06:36;;;;;;;;;;;;;;;;;;2219855;58;1367;-70
2021/12/19 14:09:13;;;;;;;;;;;;;;;;;;2218286;58;1776;-70
2021/12/19 14:11:50;;;;;;;;;;;;;;;;;;2220277;58;1372;-72
2021/12/19 14:14:28;;;;;;;;;;;;;;;;;;2210838;53;3552;-71
2021/12/19 14:17:02;;;;;;;;;;;;;;;;;;2211111;59;1222;-71
2021/12/19 14:19:37;;;;;;;;;;;;;;;;;;2209611;58;1397;-71
2021/12/19 14:22:15;;;;;;;;;;;;;;;;;;2210006;59;1258;-71
2021/12/19 14:24:53;;;;;;;;;;;;;;;;;;2211402;66;1927;-71
2021/12/19 14:27:27;;;;;;;;;;;;;;;;;;2207337;66;1114;-71
2021/12/19 14:30:01;;;;;;;;;;;;;;;;;;2211284;60;1679;-71
2021/12/19 14:32:36;;;;;;;;;;;;;;;;;;2211698;58;1459;-71
2021/12/19 14:35:15;;;;;;;;;;;;;;;;;;2211100;66;1123;-71
2021/12/19 14:37:50;;;;;;;;;;;;;;;;;;2213591;66;1231;-71
2021/12/19 14:40:27;;;;;;;;;;;;;;;;;;2212662;59;1112;-71
2021/12/19 14:43:02;;;;;;;;;;;;;;;;;;2214093;59;1362;-71
2021/12/19 14:45:36;;;;;;;;;;;;;;;;;;2213143;66;1940;-71
2021/12/19 14:48:11;;;;;;;;;;;;;;;;;;2210860;59;1161;-71
2021/12/19 14:50:50;;;;;;;;;;;;;;;;;;2213192;58;1177;-71
2021/12/19 14:53:24;;;;;;;;;;;;;;;;;;2208149;58;1455;-71
2021/12/19 14:56:01;;;;;;;;;;;;;;;;;;2212114;66;2603;-71
2021/12/19 14:58:36;;;;;;;;;;;;;;;;;;2209294;59;2640;-71
2021/12/19 15:01:10;;;;;;;;;;;;;;;;;;2214886;66;1161;-71
2021/12/19 15:03:49;;;;;;;;;;;;;;;;;;2211575;66;1272;-71
2021/12/19 15:06:24;;;;;;;;;;;;;;;;;;2209183;59;1945;-71
2021/12/19 15:08:58;;;;;;;;;;;;;;;;;;2210382;58;1293;-70
2021/12/19 15:11:33;;;;;;;;;;;;;;;;;;2212129;59;1378;-71
2021/12/19 15:14:07;;;;;;;;;;;;;;;;;;2210197;58;1211;-71
2021/12/19 15:16:41;;;;;;;;;;;;;;;;;;2211300;58;1275;-71
2021/12/19 15:19:14;;;;;;;;;;;;;;;;;;2212412;58;1104;-71
2021/12/19 15:21:47;;;;;;;;;;;;;;;;;;2211609;66;1240;-71
2021/12/19 15:24:20;;;;;;;;;;;;;;;;;;2211540;59;1941;-71
2021/12/19 15:26:56;;;;;;;;;;;;;;;;;;2209148;58;1242;-71
2021/12/19 15:29:30;;;;;;;;;;;;;;;;;;2210460;59;1634;-71
2021/12/19 15:32:03;;;;;;;;;;;;;;;;;;2213103;59;1958;-71
2021/12/19 15:34:36;;;;;;;;;;;;;;;;;;2206640;59;1190;-71
2021/12/19 15:37:09;;;;;;;;;;;;;;;;;;2210744;59;1882;-70
2021/12/19 15:39:43;;;;;;;;;;;;;;;;;;2208691;58;1998;-71
2021/12/19 15:42:19;;;;;;;;;;;;;;;;;;2208948;58;2563;-71
2021/12/19 15:44:52;;;;;;;;;;;;;;;;;;2208367;60;2514;-70
2021/12/19 15:47:25;;;;;;;;;;;;;;;;;;2207804;58;2664;-70
2021/12/19 15:49:59;;;;;;;;;;;;;;;;;;2207000;58;2013;-70
2021/12/19 15:52:32;;;;;;;;;;;;;;;;;;2210399;58;1188;-70
2021/12/19 15:55:07;;;;;;;;;;;;;;;;;;2210903;66;1220;-70
2021/12/19 15:57:43;;;;;;;;;;;;;;;;;;2205885;59;2311;-70
2021/12/19 16:00:18;;;;;;;;;;;;;;;;;;2205300;58;2266;-70
2021/12/19 16:02:52;;;;;;;;;;;;;;;;;;2206804;66;1943;-70
2021/12/19 16:05:26;;;;;;;;;;;;;;;;;;2210200;59;1928;-70
2021/12/19 16:07:59;;;;;;;;;;;;;;;;;;2207121;58;2479;-70
2021/12/19 16:10:33;;;;;;;;;;;;;;;;;;2207471;59;1851;-70
2021/12/19 16:13:08;;;;;;;;;;;;;;;;;;2209648;59;1343;-70
2021/12/19 16:15:42;;;;;;;;;;;;;;;;;;2208286;59;1916;-70
2021/12/19 16:18:15;;;;;;;;;;;;;;;;;;2208781;66;1732;-70
2021/12/19 16:20:48;;;;;;;;;;;;;;;;;;2207892;66;1772;-70
2021/12/19 16:23:21;;;;;;;;;;;;;;;;;;2209589;58;1230;-70
2021/12/19 16:25:55;;;;;;;;;;;;;;;;;;2207339;58;1944;-70
2021/12/19 16:28:30;;;;;;;;;;;;;;;;;;2208452;66;1754;-70
2021/12/19 16:31:04;;;;;;;;;;;;;;;;;;2207622;66;1699;-70
2021/12/19 16:33:38;;;;;;;;;;;;;;;;;;2207367;66;1755;-70
2021/12/19 16:36:11;;;;;;;;;;;;;;;;;;2207639;59;1969;-70
2021/12/19 16:38:46;;;;;;;;;;;;;;;;;;2206741;59;17727;-70
2021/12/19 16:41:25;;;;;;;;;;;;;;;;;;2203273;59;29953;-70
2021/12/19 16:44:01;;;;;;;;;;;;;;;;;;2201398;59;24231;-70
2021/12/19 16:46:34;;;;;;;;;;;;;;;;;;2201312;59;14446;-70
2021/12/19 16:49:07;;;;;;;;;;;;;;;;;;2202078;59;25942;-71
2021/12/19 16:51:41;;;;;;;;;;;;;;;;;;2202154;59;23571;-71
2021/12/19 16:54:14;;;;;;;;;;;;;;;;;;2202162;59;20831;-70
2021/12/19 16:56:47;;;;;;;;;;;;;;;;;;2199646;59;21352;-70
2021/12/19 16:59:23;;;;;;;;;;;;;;;;;;2201020;59;29856;-71
2021/12/19 17:01:57;;;;;;;;;;;;;;;;;;2201374;59;23068;-70
2021/12/19 17:04:30;;;;;;;;;;;;;;;;;;2200851;66;20592;-70
2021/12/19 17:07:03;;;;;;;;;;;;;;;;;;2199149;59;27387;-70
2021/12/19 17:09:37;;;;;;;;;;;;;;;;;;2202232;63;12980;-71
2021/12/19 17:12:12;;;;;;;;;;;;;;;;;;2202105;59;33964;-70
2021/12/19 17:14:49;;;;;;;;;;;;;;;;;;2200097;59;24053;-71
2021/12/19 17:17:22;;;;;;;;;;;;;;;;;;2201590;59;16936;-71
2021/12/19 17:19:55;;;;;;;;;;;;;;;;;;2202983;66;35546;-70
2021/12/19 17:22:28;;;;;;;;;;;;;;;;;;2201975;59;26368;-70
2021/12/19 17:25:05;;;;;;;;;;;;;;;;;;2200754;59;30778;-70
2021/12/19 17:27:41;;;;;;;;;;;;;;;;;;2197433;59;17026;-71
2021/12/19 17:30:17;;;;;;;;;;;;;;;;;;2201543;59;17605;-70
2021/12/19 17:32:50;;;;;;;;;;;;;;;;;;2201506;58;22179;-70
2021/12/19 17:35:23;;;;;;;;;;;;;;;;;;2201964;59;22485;-71
2021/12/19 17:37:59;;;;;;;;;;;;;;;;;;2201966;58;30971;-70
2021/12/19 17:40:52;;;;;;;;;;;;;;;;;;2205342;66;22026;-70
2021/12/19 17:43:26;;;;;;;;;;;;;;;;;;2209674;59;27442;-70
2021/12/19 17:46:02;;;;;;;;;;;;;;;;;;2209204;66;17154;-70
2021/12/19 17:48:36;;;;;;;;;;;;;;;;;;2207293;66;18672;-70
2021/12/19 17:51:09;;;;;;;;;;;;;;;;;;2208145;59;22057;-70
2021/12/19 17:53:43;;;;;;;;;;;;;;;;;;2212683;59;22908;-70
2021/12/19 17:56:16;;;;;;;;;;;;;;;;;;2208621;59;20946;-70
2021/12/19 17:58:49;;;;;;;;;;;;;;;;;;2210530;66;26125;-70
2021/12/19 18:01:26;;;;;;;;;;;;;;;;;;2202014;59;14857;-70
2021/12/19 18:04:00;;;;;;;;;;;;;;;;;;2204393;63;20562;-70
2021/12/19 18:06:35;;;;;;;;;;;;;;;;;;2201433;59;31552;-70
2021/12/19 18:09:08;;;;;;;;;;;;;;;;;;2202950;58;25699;-70
2021/12/19 18:11:41;;;;;;;;;;;;;;;;;;2206025;59;16350;-70
2021/12/19 18:14:15;;;;;;;;;;;;;;;;;;2209334;58;19759;-70
2021/12/19 18:16:51;;;;;;;;;;;;;;;;;;2204275;59;28190;-70
2021/12/19 18:19:24;;;;;;;;;;;;;;;;;;2205165;63;25455;-70
2021/12/19 18:21:57;;;;;;;;;;;;;;;;;;2204071;66;25776;-70
2021/12/19 18:24:30;;;;;;;;;;;;;;;;;;2209424;59;17239;-70
2021/12/19 18:27:03;;;;;;;;;;;;;;;;;;2207731;59;31532;-70
2021/12/19 18:29:38;;;;;;;;;;;;;;;;;;2205930;59;15672;-71
2021/12/19 18:32:14;;;;;;;;;;;;;;;;;;2207153;59;18558;-70
2021/12/19 18:34:49;;;;;;;;;;;;;;;;;;2212680;63;21328;-70
2021/12/19 18:37:25;;;;;;;;;;;;;;;;;;2206276;59;16530;-70
2021/12/19 18:40:00;;;;;;;;;;;;;;;;;;2202386;59;20504;-70
2021/12/19 18:42:42;;;;;;;;;;;;;;;;;;2205772;59;35233;-70
2021/12/19 18:45:21;;;;;;;;;;;;;;;;;;2211821;66;19410;-70
2021/12/19 18:48:05;;;;;;;;;;;;;;;;;;2201277;59;16670;-71
2021/12/19 18:50:53;;;;;;;;;;;;;;;;;;2200919;59;17191;-70